地図

経路データ

SID SEASON NUMBER BASIN SUBBASIN NAME ISO_TIME NATURE LAT LON WMO_WIND WMO_PRES WMO_AGENCY TRACK_TYPE DIST2LAND LANDFALL IFLAG USA_AGENCY USA_ATCF_ID USA_LAT USA_LON USA_RECORD USA_STATUS USA_WIND USA_PRES USA_SSHS USA_R34_NE USA_R34_SE USA_R34_SW USA_R34_NW USA_R50_NE USA_R50_SE USA_R50_SW USA_R50_NW USA_R64_NE USA_R64_SE USA_R64_SW USA_R64_NW USA_POCI USA_ROCI USA_RMW USA_EYE TOKYO_LAT TOKYO_LON TOKYO_GRADE TOKYO_WIND TOKYO_PRES TOKYO_R50_DIR TOKYO_R50_LONG TOKYO_R50_SHORT TOKYO_R30_DIR TOKYO_R30_LONG TOKYO_R30_SHORT TOKYO_LAND CMA_LAT CMA_LON CMA_CAT CMA_WIND CMA_PRES HKO_LAT HKO_LON HKO_CAT HKO_WIND HKO_PRES NEWDELHI_LAT NEWDELHI_LON NEWDELHI_GRADE NEWDELHI_WIND NEWDELHI_PRES NEWDELHI_CI NEWDELHI_DP NEWDELHI_POCI REUNION_LAT REUNION_LON REUNION_TYPE REUNION_WIND REUNION_PRES REUNION_TNUM REUNION_CI REUNION_RMW REUNION_R34_NE REUNION_R34_SE REUNION_R34_SW REUNION_R34_NW REUNION_R50_NE REUNION_R50_SE REUNION_R50_SW REUNION_R50_NW REUNION_R64_NE REUNION_R64_SE REUNION_R64_SW REUNION_R64_NW BOM_LAT BOM_LON BOM_TYPE BOM_WIND BOM_PRES BOM_TNUM BOM_CI BOM_RMW BOM_R34_NE BOM_R34_SE BOM_R34_SW BOM_R34_NW BOM_R50_NE BOM_R50_SE BOM_R50_SW BOM_R50_NW BOM_R64_NE BOM_R64_SE BOM_R64_SW BOM_R64_NW BOM_ROCI BOM_POCI BOM_EYE BOM_POS_METHOD BOM_PRES_METHOD NADI_LAT NADI_LON NADI_CAT NADI_WIND NADI_PRES WELLINGTON_LAT WELLINGTON_LON WELLINGTON_WIND WELLINGTON_PRES DS824_LAT DS824_LON DS824_STAGE DS824_WIND DS824_PRES TD9636_LAT TD9636_LON TD9636_STAGE TD9636_WIND TD9636_PRES TD9635_LAT TD9635_LON TD9635_WIND TD9635_PRES TD9635_ROCI NEUMANN_LAT NEUMANN_LON NEUMANN_CLASS NEUMANN_WIND NEUMANN_PRES MLC_LAT MLC_LON MLC_CLASS MLC_WIND MLC_PRES USA_GUST BOM_GUST BOM_GUST_PER REUNION_GUST REUNION_GUST_PER USA_SEAHGT USA_SEARAD_NE USA_SEARAD_SE USA_SEARAD_SW USA_SEARAD_NW STORM_SPEED STORM_DIR
1933135N13278 1933 15 NA CS NOT_NAMED 1933-05-14 12:00:00 TS 13.3000 -82.0000 35 hurdat_atl main 162 112 O_____________ hurdat_atl AL011933 13.3000 -82.0000 TS 35 0 12 326
1933135N13278 1933 15 NA CS NOT_NAMED 1933-05-14 15:00:00 TS 13.8051 -82.3497 main 112 53 P_____________ AL011933 13.8051 -82.3497 TS 35 0 12 326
1933135N13278 1933 15 NA CS NOT_NAMED 1933-05-14 18:00:00 TS 14.3000 -82.7000 35 hurdat_atl main 53 24 O_____________ hurdat_atl AL011933 14.3000 -82.7000 TS 35 0 12 325
1933135N13278 1933 15 NA CS NOT_NAMED 1933-05-14 21:00:00 TS 14.7850 -83.0502 main 15 0 P_____________ AL011933 14.7850 -83.0502 TS 35 0 12 326
1933135N13278 1933 15 NA CS NOT_NAMED 1933-05-15 00:00:00 TS 15.3000 -83.4000 35 hurdat_atl main 0 0 O_____________ hurdat_atl AL011933 15.3000 -83.4000 TS 35 0 13 328
1933135N13278 1933 15 NA CS NOT_NAMED 1933-05-15 03:00:00 TS 15.8474 -83.7430 main 39 39 P_____________ AL011933 15.8474 -83.7430 TS 35 0 14 331
1933135N13278 1933 15 NA CS NOT_NAMED 1933-05-15 06:00:00 TS 16.5000 -84.1000 35 hurdat_atl main 81 81 O_____________ hurdat_atl AL011933 16.5000 -84.1000 TS 35 0 16 334
1933135N13278 1933 15 NA CS NOT_NAMED 1933-05-15 09:00:00 TS 17.2899 -84.4706 main 158 158 P_____________ AL011933 17.2899 -84.4706 TS 35 0 19 336
1933135N13278 1933 15 NA CS NOT_NAMED 1933-05-15 12:00:00 TS 18.2000 -84.9000 35 hurdat_atl main 257 214 O_____________ hurdat_atl AL011933 18.2000 -84.9000 TS 35 0 21 335
1933135N13278 1933 15 NA CS NOT_NAMED 1933-05-15 15:00:00 TS 19.1774 -85.4129 main 212 122 P_____________ AL011933 19.1774 -85.4129 TS 37 0 23 333
1933135N13278 1933 15 NA CS NOT_NAMED 1933-05-15 18:00:00 TS 20.2000 -86.0000 40 hurdat_atl main 115 15 O_____________ hurdat_atl AL011933 20.2000 -86.0000 TS 40 0 24 332
1933135N13278 1933 15 NA CS NOT_NAMED 1933-05-15 21:00:00 TS 21.3123 -86.6265 main 20 15 P_____________ AL011933 21.3123 -86.6265 TS 42 0 23 329
1933135N13278 1933 15 NA GM NOT_NAMED 1933-05-16 00:00:00 TS 22.2000 -87.3000 45 1001 hurdat_atl main 80 80 O_____________ hurdat_atl AL011933 22.2000 -87.3000 TS 45 1001 0 18 315
1933135N13278 1933 15 NA GM NOT_NAMED 1933-05-16 03:00:00 TS 22.5773 -88.0015 main 122 122 P_____________ AL011933 22.5773 -88.0015 TS 45 0 14 291
1933135N13278 1933 15 NA GM NOT_NAMED 1933-05-16 06:00:00 TS 22.7000 -88.7000 45 hurdat_atl main 134 134 O_____________ hurdat_atl AL011933 22.7000 -88.7000 TS 45 0 14 283
1933135N13278 1933 15 NA GM NOT_NAMED 1933-05-16 09:00:00 TS 22.8878 -89.4250 main 176 176 P_____________ AL011933 22.8878 -89.4250 TS 45 0 12 284
1933135N13278 1933 15 NA GM NOT_NAMED 1933-05-16 12:00:00 TS 23.0000 -90.0000 45 hurdat_atl main 201 201 O_____________ hurdat_atl AL011933 23.0000 -90.0000 TS 45 0 8 280
1933135N13278 1933 15 NA GM NOT_NAMED 1933-05-16 15:00:00 TS 23.0296 -90.2827 main 205 205 P_____________ AL011933 23.0296 -90.2827 TS 45 0 4 270
1933135N13278 1933 15 NA GM NOT_NAMED 1933-05-16 18:00:00 TS 23.0000 -90.4000 45 hurdat_atl main 207 207 O_____________ hurdat_atl AL011933 23.0000 -90.4000 TS 45 0 2 253
1933135N13278 1933 15 NA GM NOT_NAMED 1933-05-16 21:00:00 TS 22.9650 -90.5150 main 210 199 P_____________ AL011933 22.9650 -90.5150 TS 45 0 2 241
1933135N13278 1933 15 NA GM NOT_NAMED 1933-05-17 00:00:00 TS 22.9000 -90.6000 45 hurdat_atl main 203 194 O_____________ hurdat_atl AL011933 22.9000 -90.6000 TS 45 0 2 228
1933135N13278 1933 15 NA GM NOT_NAMED 1933-05-17 03:00:00 TS 22.8075 -90.7000 main 194 186 P_____________ AL011933 22.8075 -90.7000 TS 45 0 3 223
1933135N13278 1933 15 NA GM NOT_NAMED 1933-05-17 06:00:00 TS 22.7000 -90.8000 45 hurdat_atl main 186 178 O_____________ hurdat_atl AL011933 22.7000 -90.8000 TS 45 0 3 225
1933135N13278 1933 15 NA GM NOT_NAMED 1933-05-17 09:00:00 TS 22.6225 -90.8999 main 178 172 P_____________ AL011933 22.6225 -90.8999 TS 45 0 3 223
1933135N13278 1933 15 NA GM NOT_NAMED 1933-05-17 12:00:00 TS 22.5000 -91.0000 45 hurdat_atl main 172 157 O_____________ hurdat_atl AL011933 22.5000 -91.0000 TS 45 0 4 209
1933135N13278 1933 15 NA GM NOT_NAMED 1933-05-17 15:00:00 TS 22.2800 -91.1075 main 157 137 P_____________ AL011933 22.2800 -91.1075 TS 45 0 5 200
1933135N13278 1933 15 NA GM NOT_NAMED 1933-05-17 18:00:00 TS 22.0000 -91.2000 45 hurdat_atl main 137 121 O_____________ hurdat_atl AL011933 22.0000 -91.2000 TS 45 0 6 194
1933135N13278 1933 15 NA GM NOT_NAMED 1933-05-17 21:00:00 TS 21.7150 -91.2574 main 123 108 P_____________ AL011933 21.7150 -91.2574 TS 42 0 6 189
1933135N13278 1933 15 NA GM NOT_NAMED 1933-05-18 00:00:00 TS 21.4000 -91.3000 40 hurdat_atl main 108 99 O_____________ hurdat_atl AL011933 21.4000 -91.3000 TS 40 0 7 187
1933135N13278 1933 15 NA GM NOT_NAMED 1933-05-18 03:00:00 TS 21.0500 -91.3500 main 99 96 P_____________ AL011933 21.0500 -91.3500 TS 40 0 7 188
1933135N13278 1933 15 NA GM NOT_NAMED 1933-05-18 06:00:00 TS 20.7000 -91.4000 40 hurdat_atl main 96 93 O_____________ hurdat_atl AL011933 20.7000 -91.4000 TS 40 0 7 188
1933135N13278 1933 15 NA GM NOT_NAMED 1933-05-18 09:00:00 TS 20.3925 -91.4500 main 93 93 P_____________ AL011933 20.3925 -91.4500 TS 37 0 6 189
1933135N13278 1933 15 NA GM NOT_NAMED 1933-05-18 12:00:00 TS 20.1000 -91.5000 35 hurdat_atl main 94 84 O_____________ hurdat_atl AL011933 20.1000 -91.5000 TS 35 0 6 189
1933135N13278 1933 15 NA GM NOT_NAMED 1933-05-18 15:00:00 TS 19.7925 -91.5500 main 84 64 P_____________ AL011933 19.7925 -91.5500 TS 35 0 6 189
1933135N13278 1933 15 NA GM NOT_NAMED 1933-05-18 18:00:00 TS 19.5000 -91.6000 35 hurdat_atl main 64 45 O_____________ hurdat_atl AL011933 19.5000 -91.6000 TS 35 0 6 191
1933135N13278 1933 15 NA GM NOT_NAMED 1933-05-18 21:00:00 TS 19.2425 -91.6650 main 39 23 P_____________ AL011933 19.2425 -91.6650 TS 35 0 5 191
1933135N13278 1933 15 NA GM NOT_NAMED 1933-05-19 00:00:00 TS 19.0000 -91.7000 35 hurdat_atl main 23 21 O_____________ hurdat_atl AL011933 19.0000 -91.7000 TS 35 0 5 179
1933135N13278 1933 15 NA GM NOT_NAMED 1933-05-19 03:00:00 TS 18.7500 -91.6649 main 21 11 P_____________ AL011933 18.7500 -91.6649 TS 32 -1 5 169
1933135N13278 1933 15 NA GM NOT_NAMED 1933-05-19 06:00:00 TS 18.5000 -91.6000 30 hurdat_atl main 11 0 O_____________ hurdat_atl AL011933 18.5000 -91.6000 TD 30 -1 5 166
1933135N13278 1933 15 NA NA NOT_NAMED 1933-05-19 09:00:00 TS 18.2500 -91.5425 main 0 0 P_____________ AL011933 18.2500 -91.5425 TD 27 -1 5 169
1933135N13278 1933 15 NA NA NOT_NAMED 1933-05-19 12:00:00 TS 18.0000 -91.5000 25 hurdat_atl main 0 0 O_____________ hurdat_atl AL011933 18.0000 -91.5000 TD 25 -1 5 173
1933135N13278 1933 15 NA NA NOT_NAMED 1933-05-19 15:00:00 TS 17.7500 -91.4900 main 0 0 P_____________ AL011933 17.7500 -91.4900 TD 25 -1 5 178
1933135N13278 1933 15 NA NA NOT_NAMED 1933-05-19 18:00:00 TS 17.5000 -91.5000 25 hurdat_atl main 0 O_____________ hurdat_atl AL011933 17.5000 -91.5000 TD 25 -1 5 182

IBTrACS Databaseについて

本データベースは、米国NOAAが公開する1842年以降の世界の熱帯低気圧のベストトラックデータアーカイブInternational Best Track Archive for Climate Stewardship (IBTrACS)を、ウェブで閲覧しやすい形式に変換したものです。

最終更新日:2021-12-06